createdAt,value
2023-01-03T00:01:58.866Z,9.10
2023-01-03T00:04:25.954Z,9.25
2023-01-03T00:06:54.301Z,9.20
2023-01-03T00:09:24.860Z,9.28
2023-01-03T00:12:13.252Z,9.38
2023-01-03T00:14:43.825Z,9.53
2023-01-03T00:17:12.993Z,9.72
2023-01-03T00:19:44.768Z,9.87
2023-01-03T00:22:14.237Z,9.97
2023-01-03T00:24:42.146Z,10.16
2023-01-03T00:27:10.400Z,10.46
2023-01-03T00:29:39.765Z,10.71
2023-01-03T00:32:07.541Z,10.80
2023-01-03T00:34:36.266Z,10.87
2023-01-03T00:37:05.360Z,11.04
2023-01-03T00:39:33.894Z,11.13
2023-01-03T00:42:03.182Z,11.26
2023-01-03T00:44:31.621Z,11.27
2023-01-03T00:47:06.080Z,11.26
2023-01-03T00:49:34.609Z,11.25
2023-01-03T00:52:02.096Z,11.33
2023-01-03T00:54:29.761Z,11.33
2023-01-03T00:56:57.040Z,11.34
2023-01-03T00:59:24.400Z,11.39
2023-01-03T01:01:54.945Z,11.42
2023-01-03T01:04:30.919Z,11.52
2023-01-03T01:07:01.492Z,11.50
2023-01-03T01:09:33.796Z,11.36
2023-01-03T01:12:01.517Z,11.39
2023-01-03T01:14:30.593Z,11.38
2023-01-03T01:17:00.890Z,11.53
2023-01-03T01:19:33.932Z,11.61
2023-01-03T01:22:01.958Z,11.63
2023-01-03T01:24:35.474Z,11.67
2023-01-03T01:27:03.055Z,11.60
2023-01-03T01:29:38.514Z,11.64
2023-01-03T01:32:06.720Z,11.67
2023-01-03T01:34:34.086Z,11.62
2023-01-03T01:37:03.432Z,11.43
2023-01-03T01:39:32.343Z,11.37
2023-01-03T01:42:22.312Z,11.25
2023-01-03T01:45:04.322Z,11.11
2023-01-03T01:47:41.634Z,10.98
2023-01-03T01:50:40.075Z,10.92
2023-01-03T01:53:15.647Z,10.97
2023-01-03T01:56:13.717Z,10.80
2023-01-03T01:58:43.736Z,10.91
2023-01-03T02:04:03.395Z,10.82
2023-01-03T02:06:33.538Z,10.73
2023-01-03T02:09:00.828Z,10.73
2023-01-03T02:11:47.079Z,10.70
2023-01-03T02:14:32.359Z,10.73
2023-01-03T02:17:14.773Z,10.68
2023-01-03T02:20:06.917Z,10.65
2023-01-03T02:22:46.500Z,10.54
2023-01-03T02:25:38.292Z,10.64
2023-01-03T02:28:30.217Z,10.69
2023-01-03T02:31:10.462Z,10.68
2023-01-03T02:34:16.980Z,10.57
2023-01-03T02:36:59.574Z,10.57
2023-01-03T02:39:44.211Z,10.50
2023-01-03T02:42:40.980Z,10.37
2023-01-03T02:45:16.832Z,10.39
2023-01-03T02:47:58.108Z,10.30
2023-01-03T02:50:39.748Z,10.29
2023-01-03T02:53:12.673Z,10.19
2023-01-03T02:55:42.505Z,10.11
2023-01-03T02:58:16.077Z,10.08
2023-01-03T03:00:50.874Z,9.95
2023-01-03T03:03:23.724Z,9.99
2023-01-03T03:06:03.251Z,10.03
2023-01-03T03:08:30.822Z,9.85
2023-01-03T03:11:16.993Z,9.66
2023-01-03T03:13:53.543Z,9.54
2023-01-03T03:16:50.388Z,9.44
2023-01-03T03:19:44.572Z,9.46
2023-01-03T03:22:46.393Z,9.24
2023-01-03T03:25:27.867Z,9.38
2023-01-03T03:28:19.509Z,9.37
2023-01-03T03:30:50.165Z,9.15
2023-01-03T03:33:20.709Z,9.08
2023-01-03T03:35:58.959Z,9.22
2023-01-03T03:38:35.460Z,9.26
2023-01-03T03:41:26.074Z,9.22
2023-01-03T03:44:28.603Z,9.05
2023-01-03T03:47:07.204Z,9.09
2023-01-03T03:49:38.451Z,9.17
2023-01-03T03:52:26.511Z,9.05
2023-01-03T03:55:08.487Z,8.98
2023-01-03T03:57:41.492Z,8.78
2023-01-03T04:00:15.792Z,8.73
2023-01-03T04:02:47.211Z,8.65
2023-01-03T04:05:18.159Z,8.60
2023-01-03T04:07:47.105Z,8.55
2023-01-03T04:10:20.482Z,8.60
2023-01-03T04:12:52.173Z,8.59
2023-01-03T04:15:20.169Z,8.72
2023-01-03T04:17:47.468Z,8.67
2023-01-03T04:20:15.418Z,8.66
2023-01-03T04:22:42.876Z,8.68
2023-01-03T04:25:11.609Z,8.74
2023-01-03T04:27:38.808Z,8.84
2023-01-03T04:30:07.396Z,8.95
2023-01-03T04:32:34.856Z,9.14
2023-01-03T04:35:02.289Z,9.09
2023-01-03T04:37:29.782Z,9.11
2023-01-03T04:39:57.193Z,9.18
2023-01-03T04:42:43.069Z,9.25
2023-01-03T04:45:11.402Z,9.39
2023-01-03T04:47:38.494Z,9.36
2023-01-03T04:50:06.292Z,9.32
2023-01-03T04:52:33.451Z,9.34
2023-01-03T04:55:01.873Z,9.39
2023-01-03T04:57:29.341Z,9.31
2023-01-03T04:59:56.801Z,9.32
2023-01-03T05:02:23.888Z,9.31
2023-01-03T05:04:51.245Z,9.20
2023-01-03T05:07:19.275Z,9.21
2023-01-03T05:09:46.758Z,9.01
2023-01-03T05:12:15.404Z,8.88
2023-01-03T05:14:42.735Z,8.77
2023-01-03T05:17:10.338Z,8.83
2023-01-03T05:20:02.466Z,8.84
2023-01-03T05:22:48.036Z,8.82
2023-01-03T05:25:34.408Z,8.78
2023-01-03T05:28:03.796Z,8.94
2023-01-03T05:30:30.993Z,9.21
2023-01-03T05:32:58.767Z,9.07
2023-01-03T05:35:26.468Z,9.25
2023-01-03T05:37:54.628Z,9.23
2023-01-03T05:40:22.086Z,9.25
2023-01-03T05:42:50.273Z,9.29
2023-01-03T05:45:17.834Z,9.25
2023-01-03T05:47:45.200Z,9.24
2023-01-03T05:50:12.615Z,9.25
2023-01-03T05:52:40.033Z,9.18
2023-01-03T05:55:07.827Z,9.11
2023-01-03T05:57:36.996Z,9.20
2023-01-03T06:00:05.902Z,9.16
2023-01-03T06:02:33.019Z,9.10
2023-01-03T06:05:00.445Z,9.13
2023-01-03T06:07:30.431Z,9.10
2023-01-03T06:09:57.955Z,8.94
2023-01-03T06:12:27.777Z,8.86
2023-01-03T06:14:55.999Z,8.84
2023-01-03T06:17:41.780Z,8.83
2023-01-03T06:20:11.280Z,8.76
2023-01-03T06:22:38.888Z,8.80
2023-01-03T06:25:07.436Z,8.79
2023-01-03T06:27:36.339Z,8.71
2023-01-03T06:30:03.908Z,8.72
2023-01-03T06:32:31.396Z,8.78
2023-01-03T06:34:59.623Z,8.68
2023-01-03T06:37:26.999Z,8.44
2023-01-03T06:39:54.454Z,8.58
2023-01-03T06:42:40.015Z,8.46
2023-01-03T06:45:33.169Z,8.22
2023-01-03T06:48:25.879Z,8.19
2023-01-03T06:51:11.923Z,8.09
2023-01-03T06:53:43.040Z,8.01
2023-01-03T06:56:10.763Z,8.03
2023-01-03T06:58:37.864Z,8.05
2023-01-03T07:01:07.746Z,8.12
2023-01-03T07:03:35.397Z,8.17
2023-01-03T07:06:02.989Z,8.24
2023-01-03T07:08:32.257Z,8.30
2023-01-03T07:11:00.306Z,8.20
2023-01-03T07:13:47.345Z,8.13
2023-01-03T07:16:19.198Z,8.02
2023-01-03T07:18:59.579Z,8.00
2023-01-03T07:21:29.130Z,7.91
2023-01-03T07:23:57.944Z,7.99
2023-01-03T07:26:25.846Z,7.95
2023-01-03T07:28:53.684Z,8.04
2023-01-03T07:31:21.154Z,8.19
2023-01-03T07:33:48.434Z,8.29
2023-01-03T07:36:17.155Z,8.45
2023-01-03T07:38:45.854Z,8.58
2023-01-03T07:41:14.573Z,8.66
2023-01-03T07:43:45.286Z,8.56
2023-01-03T07:46:22.439Z,8.53
2023-01-03T07:48:57.363Z,8.53
2023-01-03T07:51:33.485Z,8.54
2023-01-03T07:54:02.984Z,8.47
2023-01-03T07:56:40.065Z,8.51
2023-01-03T07:59:07.369Z,8.48
2023-01-03T08:01:34.678Z,8.49
2023-01-03T08:04:01.971Z,8.71
2023-01-03T08:06:29.272Z,8.89
2023-01-03T08:09:15.014Z,8.86
2023-01-03T08:12:00.851Z,8.88
2023-01-03T08:14:40.267Z,9.00
2023-01-03T08:17:08.887Z,8.98
2023-01-03T08:19:45.164Z,8.98
2023-01-03T08:22:12.909Z,8.99
2023-01-03T08:24:39.973Z,9.05
2023-01-03T08:27:07.330Z,9.10
2023-01-03T08:29:34.397Z,8.94
2023-01-03T08:32:04.127Z,9.22
2023-01-03T08:34:36.602Z,9.17
2023-01-03T08:37:10.544Z,9.25
2023-01-03T08:39:44.384Z,9.27
2023-01-03T08:42:16.066Z,9.23
2023-01-03T08:44:45.437Z,9.30
2023-01-03T08:47:15.714Z,9.15
2023-01-03T08:49:46.235Z,9.15
2023-01-03T08:52:13.290Z,9.14
2023-01-03T08:54:41.657Z,9.22
2023-01-03T08:57:08.991Z,9.26
2023-01-03T08:59:37.154Z,9.20
2023-01-03T09:02:04.708Z,9.16
2023-01-03T09:04:31.999Z,9.21
2023-01-03T09:06:59.489Z,9.26
2023-01-03T09:09:26.820Z,9.33
2023-01-03T09:11:54.288Z,9.67
2023-01-03T09:14:21.490Z,9.70
2023-01-03T09:16:49.646Z,9.61
2023-01-03T09:19:17.059Z,9.49
2023-01-03T09:21:44.131Z,9.54
2023-01-03T09:24:11.208Z,9.65
2023-01-03T09:26:41.545Z,9.78
2023-01-03T09:29:08.713Z,9.82
2023-01-03T09:31:40.049Z,9.92
2023-01-03T09:34:08.809Z,10.02
2023-01-03T09:36:38.838Z,10.02
2023-01-03T09:39:06.720Z,10.09
2023-01-03T09:41:35.133Z,10.09
2023-01-03T09:44:09.145Z,10.14
2023-01-03T09:46:37.569Z,10.56
2023-01-03T09:49:08.590Z,10.81
2023-01-03T09:51:59.103Z,10.96
2023-01-03T09:54:53.889Z,10.92
2023-01-03T09:57:54.878Z,11.16
2023-01-03T10:00:54.152Z,11.20
2023-01-03T10:03:50.826Z,11.19
2023-01-03T10:06:46.634Z,11.23
2023-01-03T10:09:18.077Z,11.20
2023-01-03T10:12:20.516Z,11.32
2023-01-03T10:14:50.728Z,11.37
2023-01-03T10:17:35.973Z,11.76
2023-01-03T10:20:12.995Z,11.53
2023-01-03T10:22:41.178Z,11.18
2023-01-03T10:25:21.843Z,10.83
2023-01-03T10:27:54.952Z,10.87
2023-01-03T10:30:37.400Z,11.06
2023-01-03T10:33:20.352Z,11.12
2023-01-03T10:35:47.467Z,10.90
2023-01-03T10:38:17.112Z,10.98
2023-01-03T10:40:50.823Z,10.87
2023-01-03T10:43:19.509Z,11.00
2023-01-03T10:46:00.519Z,10.82
2023-01-03T10:49:17.064Z,10.65
2023-01-03T10:51:43.797Z,10.63
2023-01-03T10:54:51.517Z,10.67
2023-01-03T10:57:46.806Z,10.73
2023-01-03T11:00:36.397Z,11.12
2023-01-03T11:03:13.368Z,11.28
2023-01-03T11:05:43.367Z,11.25
2023-01-03T11:08:20.051Z,11.06
2023-01-03T11:10:53.872Z,10.90
2023-01-03T11:13:30.606Z,10.78
2023-01-03T11:16:04.251Z,10.54
2023-01-03T11:18:33.326Z,10.43
2023-01-03T11:21:35.884Z,10.29
2023-01-03T11:24:42.682Z,10.33
2023-01-03T11:27:20.036Z,10.42
2023-01-03T11:29:53.352Z,10.45
2023-01-03T11:32:39.549Z,10.34
2023-01-03T11:35:25.682Z,10.42
2023-01-03T11:38:24.548Z,10.10
2023-01-03T11:41:04.040Z,10.14
2023-01-03T11:43:54.878Z,10.21
2023-01-03T11:46:38.646Z,10.37
2023-01-03T11:49:19.253Z,10.33
2023-01-03T11:52:22.037Z,10.39
2023-01-03T11:55:15.907Z,10.95
2023-01-03T11:58:02.655Z,11.14
2023-01-03T12:00:46.806Z,11.35
2023-01-03T12:03:41.596Z,11.61
2023-01-03T12:06:29.164Z,11.66
2023-01-03T12:08:56.777Z,11.42
2023-01-03T12:11:50.127Z,11.04
2023-01-03T12:14:33.268Z,10.86
2023-01-03T12:17:26.929Z,10.82
2023-01-03T12:20:11.335Z,10.52
2023-01-03T12:22:44.523Z,10.46
2023-01-03T12:25:23.243Z,10.24
2023-01-03T12:28:01.272Z,10.08
2023-01-03T12:30:50.460Z,10.14
2023-01-03T12:33:48.967Z,10.18
2023-01-03T12:36:41.783Z,10.06
2023-01-03T12:39:33.671Z,9.84
2023-01-03T12:42:16.796Z,9.75
2023-01-03T12:44:50.082Z,9.69
2023-01-03T12:47:30.094Z,9.67
2023-01-03T12:50:07.788Z,9.71
2023-01-03T12:52:36.210Z,9.70
2023-01-03T12:55:15.234Z,9.71
2023-01-03T12:58:05.177Z,9.74
2023-01-03T13:00:53.792Z,9.92
2023-01-03T13:03:21.447Z,10.05
2023-01-03T13:06:03.294Z,10.19
2023-01-03T13:08:33.925Z,10.25
2023-01-03T13:11:16.932Z,11.28
2023-01-03T13:14:16.210Z,12.27
2023-01-03T13:16:50.432Z,12.24
2023-01-03T13:19:23.056Z,12.06
2023-01-03T13:21:52.975Z,11.95
2023-01-03T13:24:45.421Z,11.65
2023-01-03T13:27:22.994Z,11.61
2023-01-03T13:29:53.604Z,11.13
2023-01-03T13:32:23.689Z,11.12
2023-01-03T13:34:57.226Z,10.80
2023-01-03T13:37:29.812Z,10.81
2023-01-03T13:40:39.256Z,10.73
2023-01-03T13:43:11.841Z,11.50
2023-01-03T13:45:39.380Z,11.94
2023-01-03T13:48:20.915Z,12.06
2023-01-03T13:51:16.889Z,12.27
2023-01-03T13:54:05.575Z,12.10
2023-01-03T13:56:59.268Z,11.90
2023-01-03T13:59:44.186Z,11.70
2023-01-03T14:02:26.375Z,11.57
2023-01-03T14:05:19.043Z,11.32
2023-01-03T14:08:13.556Z,10.65
2023-01-03T14:11:02.482Z,10.28
2023-01-03T14:14:06.926Z,9.94
2023-01-03T14:16:53.294Z,9.66
2023-01-03T14:19:30.492Z,9.50
2023-01-03T14:22:27.956Z,9.34
2023-01-03T14:24:58.753Z,9.11
2023-01-03T14:27:35.665Z,8.94
2023-01-03T14:30:02.835Z,8.80
2023-01-03T14:32:37.643Z,8.75
2023-01-03T14:35:07.060Z,8.64
2023-01-03T14:37:37.213Z,8.56
2023-01-03T14:40:07.775Z,8.49
2023-01-03T14:42:34.914Z,8.33
2023-01-03T14:45:06.552Z,8.21
2023-01-03T14:47:39.398Z,7.93
2023-01-03T14:50:14.714Z,8.00
2023-01-03T14:52:46.132Z,8.05
2023-01-03T14:55:20.637Z,7.79
2023-01-03T14:57:49.985Z,7.92
2023-01-03T15:00:25.370Z,7.86
2023-01-03T15:02:58.131Z,7.76
2023-01-03T15:05:35.471Z,7.54
2023-01-03T15:08:21.013Z,7.37
2023-01-03T15:11:00.713Z,7.35
2023-01-03T15:13:50.778Z,7.32
2023-01-03T15:16:27.221Z,7.04
2023-01-03T15:19:13.013Z,7.05
2023-01-03T15:21:41.907Z,7.15
2023-01-03T15:24:16.954Z,7.05
2023-01-03T15:26:47.358Z,7.11
2023-01-03T15:29:15.787Z,7.23
2023-01-03T15:31:55.396Z,7.36
2023-01-03T15:34:35.001Z,7.33
2023-01-03T15:37:20.472Z,7.23
2023-01-03T15:39:53.222Z,7.16
2023-01-03T15:42:45.274Z,7.22
2023-01-03T15:45:27.492Z,7.06
2023-01-03T15:47:58.061Z,6.72
2023-01-03T15:50:39.491Z,6.76
2023-01-03T15:53:21.616Z,6.75
2023-01-03T15:55:52.632Z,6.63
2023-01-03T15:58:20.007Z,6.47
2023-01-03T16:00:49.016Z,6.35
2023-01-03T16:03:18.162Z,6.44
2023-01-03T16:05:45.806Z,6.30
2023-01-03T16:08:33.977Z,6.28
2023-01-03T16:11:05.853Z,6.29
2023-01-03T16:13:40.604Z,6.25
2023-01-03T16:16:10.169Z,6.31
2023-01-03T16:18:47.421Z,6.42
2023-01-03T16:21:15.701Z,6.33
2023-01-03T16:23:43.282Z,6.36
2023-01-03T16:26:11.528Z,6.40
2023-01-03T16:28:39.169Z,6.67
2023-01-03T16:31:32.177Z,6.70
2023-01-03T16:34:00.168Z,6.51
2023-01-03T16:36:37.345Z,6.21
2023-01-03T16:39:10.425Z,6.30
2023-01-03T16:41:38.873Z,6.22
2023-01-03T16:44:06.663Z,6.10
2023-01-03T16:46:38.102Z,6.08
2023-01-03T16:49:06.220Z,6.08
2023-01-03T16:51:38.005Z,6.11
2023-01-03T16:54:08.625Z,6.03
2023-01-03T16:56:37.965Z,5.95
2023-01-03T16:59:10.599Z,6.01
2023-01-03T17:01:38.097Z,6.03
2023-01-03T17:04:06.710Z,5.91
2023-01-03T17:06:38.617Z,5.88
2023-01-03T17:09:16.221Z,6.02
2023-01-03T17:11:44.759Z,6.37
2023-01-03T17:14:23.099Z,6.06
2023-01-03T17:16:51.007Z,6.11
2023-01-03T17:20:01.553Z,6.14
2023-01-03T17:22:14.206Z,6.41
2023-01-03T17:24:43.311Z,6.20
2023-01-03T17:27:31.139Z,5.93
2023-01-03T17:30:04.791Z,5.77
2023-01-03T17:32:34.250Z,5.71
2023-01-03T17:38:24.709Z,5.79
2023-01-03T17:40:48.883Z,5.73
2023-01-03T17:43:22.261Z,5.57
2023-01-03T17:46:16.113Z,5.48
2023-01-03T17:49:06.477Z,5.59
2023-01-03T17:51:33.940Z,5.66
2023-01-03T17:54:02.324Z,5.69
2023-01-03T17:56:32.118Z,5.49
2023-01-03T17:59:00.107Z,5.39
2023-01-03T18:01:29.026Z,5.43
2023-01-03T18:03:56.295Z,5.43
2023-01-03T18:06:26.071Z,5.37
2023-01-03T18:08:58.359Z,5.30
2023-01-03T18:11:27.465Z,5.37
2023-01-03T18:13:54.698Z,5.42
2023-01-03T18:16:24.307Z,5.59
2023-01-03T18:18:51.757Z,5.38
2023-01-03T18:21:25.472Z,5.17
2023-01-03T18:24:11.275Z,4.89
2023-01-03T18:26:45.461Z,4.76
2023-01-03T18:29:15.791Z,4.73
2023-01-03T18:31:44.266Z,4.68
2023-01-03T18:34:15.404Z,4.70
2023-01-03T18:36:47.617Z,4.73
2023-01-03T18:39:19.020Z,4.56
2023-01-03T18:41:46.447Z,4.59
2023-01-03T18:44:20.716Z,4.57
2023-01-03T18:46:48.851Z,4.46
2023-01-03T18:49:17.097Z,4.36
2023-01-03T18:51:45.112Z,4.35
2023-01-03T18:54:18.773Z,4.27
2023-01-03T18:56:46.796Z,4.14
2023-01-03T18:59:21.661Z,4.29
2023-01-03T19:01:50.153Z,4.01
2023-01-03T19:04:19.820Z,3.70
2023-01-03T19:06:51.145Z,3.72
2023-01-03T19:09:23.000Z,3.60
2023-01-03T19:11:57.466Z,3.46
2023-01-03T19:14:24.991Z,3.67
2023-01-03T19:16:54.417Z,3.65
2023-01-03T19:19:21.924Z,3.69
2023-01-03T19:21:50.357Z,3.75
2023-01-03T19:24:39.041Z,3.52
2023-01-03T19:27:22.451Z,3.25
2023-01-03T19:29:51.421Z,2.94
2023-01-03T19:32:28.916Z,2.96
2023-01-03T19:34:58.001Z,3.20
2023-01-03T19:37:28.311Z,3.21
2023-01-03T19:39:57.759Z,2.77
2023-01-03T19:42:43.991Z,2.50
2023-01-03T19:45:33.659Z,2.50
2023-01-03T19:48:15.911Z,2.82
2023-01-03T19:50:43.929Z,2.78
2023-01-03T19:53:13.656Z,2.78
2023-01-03T19:55:44.762Z,2.65
2023-01-03T19:58:27.653Z,2.61
2023-01-03T20:00:58.268Z,2.45
2023-01-03T20:03:40.166Z,2.36
2023-01-03T20:06:12.251Z,2.55
2023-01-03T20:08:40.118Z,2.60
2023-01-03T20:11:23.457Z,2.48
2023-01-03T20:13:54.423Z,2.38
2023-01-03T20:16:24.579Z,2.27
2023-01-03T20:18:52.401Z,2.27
2023-01-03T20:21:24.180Z,2.20
2023-01-03T20:23:59.552Z,2.01
2023-01-03T20:26:35.320Z,1.95
2023-01-03T20:29:03.704Z,2.00
2023-01-03T20:31:32.098Z,2.07
2023-01-03T20:34:01.775Z,2.03
2023-01-03T20:36:41.194Z,1.96
2023-01-03T20:39:25.367Z,1.75
2023-01-03T20:41:54.201Z,1.76
2023-01-03T20:44:24.295Z,1.54
2023-01-03T20:46:51.767Z,1.53
2023-01-03T20:49:26.868Z,1.45
2023-01-03T20:51:54.937Z,1.50
2023-01-03T20:54:22.995Z,1.44
2023-01-03T20:56:56.769Z,1.41
2023-01-03T20:59:25.091Z,1.29
2023-01-03T21:01:52.244Z,1.21
2023-01-03T21:04:19.578Z,1.47
2023-01-03T21:06:49.137Z,1.72
2023-01-03T21:09:16.476Z,1.36
2023-01-03T21:11:44.141Z,1.19
2023-01-03T21:14:15.010Z,1.01
2023-01-03T21:16:46.272Z,1.00
2023-01-03T21:19:24.677Z,1.05
2023-01-03T21:22:01.696Z,1.19
2023-01-03T21:24:34.403Z,1.03
2023-01-03T21:27:06.973Z,0.96
2023-01-03T21:29:34.283Z,0.94
2023-01-03T21:32:03.931Z,0.94
2023-01-03T21:34:33.130Z,0.93
2023-01-03T21:37:00.685Z,1.04
2023-01-03T21:39:29.194Z,1.07
2023-01-03T21:42:17.656Z,1.05
2023-01-03T21:44:47.250Z,0.94
2023-01-03T21:47:14.561Z,0.79
2023-01-03T21:49:42.117Z,0.86
2023-01-03T21:52:10.793Z,0.89
2023-01-03T21:54:39.009Z,0.40
2023-01-03T21:57:06.473Z,0.51
2023-01-03T21:59:34.205Z,0.69
2023-01-03T22:02:19.829Z,0.46
2023-01-03T22:04:47.245Z,0.49
2023-01-03T22:07:14.700Z,0.30
2023-01-03T22:10:00.304Z,0.08
2023-01-03T22:12:29.577Z,-0.02
2023-01-03T22:14:57.012Z,0.09
2023-01-03T22:17:24.488Z,-0.11
2023-01-03T22:19:51.888Z,-0.16
2023-01-03T22:22:19.466Z,-0.11
2023-01-03T22:24:46.929Z,-0.26
2023-01-03T22:27:14.170Z,-0.28
2023-01-03T22:29:42.444Z,-0.22
2023-01-03T22:32:10.717Z,-0.31
2023-01-03T22:34:38.865Z,-0.25
2023-01-03T22:37:07.565Z,-0.09
2023-01-03T22:39:34.972Z,-0.01
2023-01-03T22:42:02.327Z,-0.09
2023-01-03T22:44:30.787Z,-0.20
2023-01-03T22:46:58.561Z,-0.18
2023-01-03T22:49:25.726Z,-0.23
2023-01-03T22:52:06.420Z,0.13
2023-01-03T22:54:35.585Z,-0.04
2023-01-03T22:57:03.590Z,-0.26
2023-01-03T22:59:30.882Z,-0.10
2023-01-03T23:01:58.920Z,-0.48
2023-01-03T23:04:28.104Z,-0.44
2023-01-03T23:06:56.386Z,-0.39
2023-01-03T23:09:25.038Z,-0.49
2023-01-03T23:12:11.751Z,-0.47
2023-01-03T23:14:39.252Z,-0.16
2023-01-03T23:17:25.225Z,-0.08
2023-01-03T23:19:52.662Z,-0.27
2023-01-03T23:22:20.134Z,-0.43
2023-01-03T23:24:47.512Z,-0.29
2023-01-03T23:27:15.119Z,-0.36
2023-01-03T23:29:43.467Z,-0.44
2023-01-03T23:32:10.957Z,-0.43
2023-01-03T23:34:38.457Z,-0.51
2023-01-03T23:37:05.812Z,-0.53
2023-01-03T23:39:33.529Z,-0.44
2023-01-03T23:42:01.793Z,-0.27
2023-01-03T23:44:29.950Z,-0.18
2023-01-03T23:46:58.258Z,-0.25
2023-01-03T23:49:25.801Z,-0.31
2023-01-03T23:51:53.254Z,-0.33
2023-01-03T23:54:20.845Z,-0.41
2023-01-03T23:56:48.624Z,-0.39
2023-01-03T23:59:16.171Z,-0.57
